CheckWX is a tool to help pilots better visualize weather data.  It is not intended as a substitute for an official pre-flight weather briefing.

19:50:11 UTC

ESNU METAR
Umeå Airport
Umeå, Sweden
Current

30 mins ago

ESNU 191920Z VRB01KT 7000 BCFG NSC M09/M10 Q0986 R14/71//60
Observed
Feb-19 @ 19:20 UTC
Wind
  • Variable at 1 KTS
Visibility
7,001 meters
Flight Rules
MVFR
Conditions
Patches of Fog
Cloud Levels
  • Clear skies
Temperature
-9°C / 16°F
Dewpoint
-10°C / 14°F
Humidity
93%
Altimeter
29.11" Hg
Pressure
985.92 hPa
Previous

60 mins ago

ESNU 191850Z 16002KT 2700 BCFG NSC M10/M10 Q0986 R14/71//60
Observed
Feb-19 @ 18:50 UTC
Wind
  • 160° at 2 KTS
Visibility
2,704 meters
Flight Rules
IFR
Conditions
Patches of Fog
Cloud Levels
  • Clear skies
Temperature
-10°C / 14°F
Dewpoint
-10°C / 14°F
Humidity
100%
Altimeter
29.11" Hg
Pressure
985.92 hPa
Previous

2 hours ago

ESNU 191820Z 14002KT 8000 R14/0650V1000N R32/P1500N FZFG NSC M07/M08 Q0986 R14/71//60
Observed
Feb-19 @ 18:20 UTC
Wind
  • 140° at 2 KTS
Visibility
7,998 meters
Flight Rules
MVFR
Conditions
Freezing Fog
Cloud Levels
  • Clear skies
Temperature
-7°C / 19°F
Dewpoint
-8°C / 18°F
Humidity
93%
Altimeter
29.11" Hg
Pressure
985.92 hPa